sensor_id;sensor_type;location;lat;lon;timestamp;P1;durP1;ratioP1;P2;durP2;ratioP2
33810;SDS011;20119;48.334;16.206;2024-01-06T00:01:24;64.05;;;42.33;;
33810;SDS011;20119;48.334;16.206;2024-01-06T00:03:51;62.20;;;40.42;;
33810;SDS011;20119;48.334;16.206;2024-01-06T00:06:18;61.38;;;41.63;;
33810;SDS011;20119;48.334;16.206;2024-01-06T00:08:46;77.63;;;53.67;;
33810;SDS011;20119;48.334;16.206;2024-01-06T00:11:18;67.72;;;45.33;;
33810;SDS011;20119;48.334;16.206;2024-01-06T00:13:46;59.42;;;42.20;;
33810;SDS011;20119;48.334;16.206;2024-01-06T00:16:13;59.92;;;42.00;;
33810;SDS011;20119;48.334;16.206;2024-01-06T00:31:35;58.50;;;42.97;;
33810;SDS011;20119;48.334;16.206;2024-01-06T00:34:02;64.70;;;45.58;;
33810;SDS011;20119;48.334;16.206;2024-01-06T00:36:30;59.53;;;44.38;;
33810;SDS011;20119;48.334;16.206;2024-01-06T00:38:57;60.67;;;43.50;;
33810;SDS011;20119;48.334;16.206;2024-01-06T00:41:24;60.67;;;43.00;;
33810;SDS011;20119;48.334;16.206;2024-01-06T00:43:51;59.78;;;41.97;;
33810;SDS011;20119;48.334;16.206;2024-01-06T00:46:19;58.55;;;42.53;;
33810;SDS011;20119;48.334;16.206;2024-01-06T00:56:35;50.30;;;37.75;;
33810;SDS011;20119;48.334;16.206;2024-01-06T01:01:38;51.00;;;36.25;;
33810;SDS011;20119;48.334;16.206;2024-01-06T01:04:05;48.03;;;35.33;;
33810;SDS011;20119;48.334;16.206;2024-01-06T01:06:33;55.25;;;36.20;;
33810;SDS011;20119;48.334;16.206;2024-01-06T01:09:00;51.65;;;38.22;;
33810;SDS011;20119;48.334;16.206;2024-01-06T01:11:27;49.85;;;35.72;;
33810;SDS011;20119;48.334;16.206;2024-01-06T01:13:56;47.63;;;36.15;;
33810;SDS011;20119;48.334;16.206;2024-01-06T01:16:23;47.72;;;34.58;;
33810;SDS011;20119;48.334;16.206;2024-01-06T01:18:51;49.28;;;37.03;;
33810;SDS011;20119;48.334;16.206;2024-01-06T01:21:18;55.47;;;38.42;;
33810;SDS011;20119;48.334;16.206;2024-01-06T01:23:45;53.92;;;39.08;;
33810;SDS011;20119;48.334;16.206;2024-01-06T01:26:13;55.13;;;38.15;;
33810;SDS011;20119;48.334;16.206;2024-01-06T01:31:17;51.85;;;38.42;;
33810;SDS011;20119;48.334;16.206;2024-01-06T01:33:44;55.28;;;39.75;;
33810;SDS011;20119;48.334;16.206;2024-01-06T01:36:12;54.72;;;39.92;;
33810;SDS011;20119;48.334;16.206;2024-01-06T01:38:39;57.20;;;38.83;;
33810;SDS011;20119;48.334;16.206;2024-01-06T01:41:07;51.38;;;37.78;;
33810;SDS011;20119;48.334;16.206;2024-01-06T01:43:34;52.10;;;38.67;;
33810;SDS011;20119;48.334;16.206;2024-01-06T01:46:01;50.70;;;38.05;;
33810;SDS011;20119;48.334;16.206;2024-01-06T01:48:30;53.42;;;38.90;;
33810;SDS011;20119;48.334;16.206;2024-01-06T01:53:34;56.72;;;40.22;;
33810;SDS011;20119;48.334;16.206;2024-01-06T01:56:02;50.97;;;39.20;;
33810;SDS011;20119;48.334;16.206;2024-01-06T01:58:30;54.67;;;40.30;;
33810;SDS011;20119;48.334;16.206;2024-01-06T02:00:57;57.38;;;40.60;;
33810;SDS011;20119;48.334;16.206;2024-01-06T02:06:01;54.00;;;41.00;;
33810;SDS011;20119;48.334;16.206;2024-01-06T02:08:29;54.45;;;41.17;;
33810;SDS011;20119;48.334;16.206;2024-01-06T02:10:56;54.13;;;41.08;;
33810;SDS011;20119;48.334;16.206;2024-01-06T02:13:23;58.83;;;43.53;;
33810;SDS011;20119;48.334;16.206;2024-01-06T02:15:51;56.03;;;41.38;;
33810;SDS011;20119;48.334;16.206;2024-01-06T02:18:18;55.40;;;42.83;;
33810;SDS011;20119;48.334;16.206;2024-01-06T02:20:45;59.33;;;42.30;;
33810;SDS011;20119;48.334;16.206;2024-01-06T02:23:15;54.40;;;41.25;;
33810;SDS011;20119;48.334;16.206;2024-01-06T02:25:42;57.88;;;41.65;;
33810;SDS011;20119;48.334;16.206;2024-01-06T02:41:10;56.90;;;41.83;;
33810;SDS011;20119;48.334;16.206;2024-01-06T02:43:37;58.05;;;41.72;;
33810;SDS011;20119;48.334;16.206;2024-01-06T02:46:04;54.50;;;39.72;;
33810;SDS011;20119;48.334;16.206;2024-01-06T02:48:31;55.92;;;40.05;;
33810;SDS011;20119;48.334;16.206;2024-01-06T02:53:34;55.55;;;41.38;;
33810;SDS011;20119;48.334;16.206;2024-01-06T03:01:15;51.08;;;40.00;;
33810;SDS011;20119;48.334;16.206;2024-01-06T03:08:48;54.85;;;40.63;;
33810;SDS011;20119;48.334;16.206;2024-01-06T03:11:15;53.85;;;39.75;;
33810;SDS011;20119;48.334;16.206;2024-01-06T03:13:42;54.67;;;39.53;;
33810;SDS011;20119;48.334;16.206;2024-01-06T03:16:11;51.22;;;38.58;;
33810;SDS011;20119;48.334;16.206;2024-01-06T03:18:40;51.38;;;38.47;;
33810;SDS011;20119;48.334;16.206;2024-01-06T03:21:16;51.92;;;39.47;;
33810;SDS011;20119;48.334;16.206;2024-01-06T03:23:43;53.88;;;38.63;;
33810;SDS011;20119;48.334;16.206;2024-01-06T03:26:11;51.97;;;37.88;;
33810;SDS011;20119;48.334;16.206;2024-01-06T03:28:38;52.85;;;39.47;;
33810;SDS011;20119;48.334;16.206;2024-01-06T03:31:05;50.47;;;38.40;;
33810;SDS011;20119;48.334;16.206;2024-01-06T03:33:32;54.35;;;40.40;;
33810;SDS011;20119;48.334;16.206;2024-01-06T03:36:05;52.83;;;40.50;;
33810;SDS011;20119;48.334;16.206;2024-01-06T03:38:32;49.55;;;39.08;;
33810;SDS011;20119;48.334;16.206;2024-01-06T03:40:59;51.15;;;38.95;;
33810;SDS011;20119;48.334;16.206;2024-01-06T03:51:15;53.25;;;38.88;;
33810;SDS011;20119;48.334;16.206;2024-01-06T03:53:43;55.28;;;42.08;;
33810;SDS011;20119;48.334;16.206;2024-01-06T04:01:22;59.15;;;41.90;;
33810;SDS011;20119;48.334;16.206;2024-01-06T04:06:26;56.08;;;41.47;;
33810;SDS011;20119;48.334;16.206;2024-01-06T04:29:41;55.92;;;42.25;;
33810;SDS011;20119;48.334;16.206;2024-01-06T04:32:09;57.03;;;41.80;;
33810;SDS011;20119;48.334;16.206;2024-01-06T04:34:38;50.67;;;39.33;;
33810;SDS011;20119;48.334;16.206;2024-01-06T04:39:42;54.65;;;40.47;;
33810;SDS011;20119;48.334;16.206;2024-01-06T04:42:10;54.38;;;38.97;;
33810;SDS011;20119;48.334;16.206;2024-01-06T04:44:37;53.10;;;39.38;;
33810;SDS011;20119;48.334;16.206;2024-01-06T04:47:06;52.15;;;38.67;;
33810;SDS011;20119;48.334;16.206;2024-01-06T04:52:09;51.25;;;38.53;;
33810;SDS011;20119;48.334;16.206;2024-01-06T04:59:48;53.67;;;38.97;;
33810;SDS011;20119;48.334;16.206;2024-01-06T05:02:16;51.78;;;38.55;;
33810;SDS011;20119;48.334;16.206;2024-01-06T05:04:44;51.83;;;38.60;;
33810;SDS011;20119;48.334;16.206;2024-01-06T05:07:11;53.03;;;39.50;;
33810;SDS011;20119;48.334;16.206;2024-01-06T05:09:38;49.20;;;38.80;;
33810;SDS011;20119;48.334;16.206;2024-01-06T05:12:06;51.70;;;39.63;;
33810;SDS011;20119;48.334;16.206;2024-01-06T05:14:33;53.70;;;39.47;;
33810;SDS011;20119;48.334;16.206;2024-01-06T05:17:01;55.38;;;40.65;;
33810;SDS011;20119;48.334;16.206;2024-01-06T05:22:05;55.10;;;40.42;;
33810;SDS011;20119;48.334;16.206;2024-01-06T05:27:08;52.95;;;39.55;;
33810;SDS011;20119;48.334;16.206;2024-01-06T05:29:36;57.00;;;40.33;;
33810;SDS011;20119;48.334;16.206;2024-01-06T05:32:03;51.67;;;38.63;;
33810;SDS011;20119;48.334;16.206;2024-01-06T05:34:31;55.15;;;40.28;;
33810;SDS011;20119;48.334;16.206;2024-01-06T05:42:11;54.85;;;39.95;;
33810;SDS011;20119;48.334;16.206;2024-01-06T05:52:19;56.25;;;42.35;;
33810;SDS011;20119;48.334;16.206;2024-01-06T05:54:46;54.17;;;40.75;;
33810;SDS011;20119;48.334;16.206;2024-01-06T05:57:15;57.13;;;41.80;;
33810;SDS011;20119;48.334;16.206;2024-01-06T06:02:18;54.28;;;40.88;;
33810;SDS011;20119;48.334;16.206;2024-01-06T06:04:46;54.10;;;41.53;;
33810;SDS011;20119;48.334;16.206;2024-01-06T06:07:13;57.08;;;41.95;;
33810;SDS011;20119;48.334;16.206;2024-01-06T06:09:40;55.75;;;42.92;;
33810;SDS011;20119;48.334;16.206;2024-01-06T06:14:45;55.95;;;43.35;;
33810;SDS011;20119;48.334;16.206;2024-01-06T06:17:12;58.45;;;42.63;;
33810;SDS011;20119;48.334;16.206;2024-01-06T06:19:40;57.05;;;41.75;;
33810;SDS011;20119;48.334;16.206;2024-01-06T06:24:43;53.08;;;40.00;;
33810;SDS011;20119;48.334;16.206;2024-01-06T06:27:10;59.50;;;41.40;;
33810;SDS011;20119;48.334;16.206;2024-01-06T06:29:37;55.88;;;40.80;;
33810;SDS011;20119;48.334;16.206;2024-01-06T06:34:42;53.10;;;40.47;;
33810;SDS011;20119;48.334;16.206;2024-01-06T06:37:09;59.75;;;42.17;;
33810;SDS011;20119;48.334;16.206;2024-01-06T06:39:36;57.08;;;42.20;;
33810;SDS011;20119;48.334;16.206;2024-01-06T06:44:33;56.22;;;40.92;;
33810;SDS011;20119;48.334;16.206;2024-01-06T06:47:00;52.15;;;38.55;;
33810;SDS011;20119;48.334;16.206;2024-01-06T06:52:05;55.08;;;38.45;;
33810;SDS011;20119;48.334;16.206;2024-01-06T06:54:32;55.85;;;38.90;;
33810;SDS011;20119;48.334;16.206;2024-01-06T06:56:59;56.65;;;39.58;;
33810;SDS011;20119;48.334;16.206;2024-01-06T06:59:28;54.17;;;38.35;;
33810;SDS011;20119;48.334;16.206;2024-01-06T07:01:55;53.47;;;38.72;;
33810;SDS011;20119;48.334;16.206;2024-01-06T07:06:58;55.17;;;35.95;;
33810;SDS011;20119;48.334;16.206;2024-01-06T07:09:27;52.22;;;34.42;;
33810;SDS011;20119;48.334;16.206;2024-01-06T07:14:22;50.72;;;30.65;;
33810;SDS011;20119;48.334;16.206;2024-01-06T07:16:49;30.60;;;17.00;;
33810;SDS011;20119;48.334;16.206;2024-01-06T07:19:17;7.20;;;1.42;;
33810;SDS011;20119;48.334;16.206;2024-01-06T07:26:57;2.22;;;2.03;;
33810;SDS011;20119;48.334;16.206;2024-01-06T07:29:24;0.80;;;0.80;;
33810;SDS011;20119;48.334;16.206;2024-01-06T07:37:03;0.98;;;0.70;;
33810;SDS011;20119;48.334;16.206;2024-01-06T07:39:31;2.95;;;2.70;;
33810;SDS011;20119;48.334;16.206;2024-01-06T07:42:00;3.17;;;2.75;;
33810;SDS011;20119;48.334;16.206;2024-01-06T07:47:03;1.83;;;1.73;;
33810;SDS011;20119;48.334;16.206;2024-01-06T07:49:31;0.50;;;0.50;;
33810;SDS011;20119;48.334;16.206;2024-01-06T07:51:59;1.60;;;1.50;;
33810;SDS011;20119;48.334;16.206;2024-01-06T07:54:27;2.05;;;1.95;;
33810;SDS011;20119;48.334;16.206;2024-01-06T07:56:54;0.52;;;0.50;;
33810;SDS011;20119;48.334;16.206;2024-01-06T07:59:23;2.63;;;1.02;;
33810;SDS011;20119;48.334;16.206;2024-01-06T08:01:50;2.28;;;2.15;;
33810;SDS011;20119;48.334;16.206;2024-01-06T08:04:17;1.10;;;0.70;;
33810;SDS011;20119;48.334;16.206;2024-01-06T08:06:44;0.73;;;0.73;;
33810;SDS011;20119;48.334;16.206;2024-01-06T08:09:38;0.93;;;0.93;;
33810;SDS011;20119;48.334;16.206;2024-01-06T08:14:41;0.77;;;0.77;;
33810;SDS011;20119;48.334;16.206;2024-01-06T08:17:09;0.95;;;0.95;;
33810;SDS011;20119;48.334;16.206;2024-01-06T08:19:36;2.70;;;2.50;;
33810;SDS011;20119;48.334;16.206;2024-01-06T08:22:03;2.17;;;2.00;;
33810;SDS011;20119;48.334;16.206;2024-01-06T08:24:30;2.72;;;2.53;;
33810;SDS011;20119;48.334;16.206;2024-01-06T08:26:59;1.45;;;1.35;;
33810;SDS011;20119;48.334;16.206;2024-01-06T08:29:27;0.60;;;0.60;;
33810;SDS011;20119;48.334;16.206;2024-01-06T08:31:54;1.02;;;1.02;;
33810;SDS011;20119;48.334;16.206;2024-01-06T08:34:23;2.00;;;1.63;;
33810;SDS011;20119;48.334;16.206;2024-01-06T08:36:50;2.38;;;1.88;;
33810;SDS011;20119;48.334;16.206;2024-01-06T08:41:54;1.13;;;1.13;;
33810;SDS011;20119;48.334;16.206;2024-01-06T08:44:22;1.10;;;1.10;;
33810;SDS011;20119;48.334;16.206;2024-01-06T08:46:50;1.63;;;1.55;;
33810;SDS011;20119;48.334;16.206;2024-01-06T08:49:17;0.70;;;0.70;;
33810;SDS011;20119;48.334;16.206;2024-01-06T08:51:44;2.20;;;2.00;;
33810;SDS011;20119;48.334;16.206;2024-01-06T08:54:11;1.60;;;1.33;;
33810;SDS011;20119;48.334;16.206;2024-01-06T08:56:39;2.70;;;1.50;;
33810;SDS011;20119;48.334;16.206;2024-01-06T08:59:06;0.85;;;0.85;;
33810;SDS011;20119;48.334;16.206;2024-01-06T09:04:11;1.77;;;1.67;;
33810;SDS011;20119;48.334;16.206;2024-01-06T09:11:49;1.58;;;1.48;;
33810;SDS011;20119;48.334;16.206;2024-01-06T09:19:30;1.15;;;1.05;;
33810;SDS011;20119;48.334;16.206;2024-01-06T09:21:58;0.90;;;0.90;;
33810;SDS011;20119;48.334;16.206;2024-01-06T09:24:25;0.88;;;0.88;;
33810;SDS011;20119;48.334;16.206;2024-01-06T09:26:52;2.55;;;1.48;;
33810;SDS011;20119;48.334;16.206;2024-01-06T09:29:20;0.55;;;0.55;;
33810;SDS011;20119;48.334;16.206;2024-01-06T09:31:47;1.08;;;1.08;;
33810;SDS011;20119;48.334;16.206;2024-01-06T09:34:14;1.73;;;1.63;;
33810;SDS011;20119;48.334;16.206;2024-01-06T09:36:43;2.78;;;2.05;;
33810;SDS011;20119;48.334;16.206;2024-01-06T09:41:47;3.00;;;1.17;;
33810;SDS011;20119;48.334;16.206;2024-01-06T09:49:26;0.30;;;0.30;;
33810;SDS011;20119;48.334;16.206;2024-01-06T09:54:31;0.45;;;0.45;;
33810;SDS011;20119;48.334;16.206;2024-01-06T09:57:00;8.35;;;3.03;;
33810;SDS011;20119;48.334;16.206;2024-01-06T09:59:28;0.93;;;0.93;;
33810;SDS011;20119;48.334;16.206;2024-01-06T10:04:35;1.60;;;1.50;;
33810;SDS011;20119;48.334;16.206;2024-01-06T10:07:03;1.92;;;1.83;;
33810;SDS011;20119;48.334;16.206;2024-01-06T10:12:08;1.50;;;1.40;;
33810;SDS011;20119;48.334;16.206;2024-01-06T10:14:36;1.85;;;1.75;;
33810;SDS011;20119;48.334;16.206;2024-01-06T10:17:05;1.20;;;1.20;;
33810;SDS011;20119;48.334;16.206;2024-01-06T10:19:34;1.35;;;1.20;;
33810;SDS011;20119;48.334;16.206;2024-01-06T10:22:03;0.50;;;0.50;;
33810;SDS011;20119;48.334;16.206;2024-01-06T10:29:45;1.73;;;1.63;;
33810;SDS011;20119;48.334;16.206;2024-01-06T10:32:12;3.05;;;1.48;;
33810;SDS011;20119;48.334;16.206;2024-01-06T10:34:42;0.80;;;0.80;;
33810;SDS011;20119;48.334;16.206;2024-01-06T10:39:46;0.68;;;0.68;;
33810;SDS011;20119;48.334;16.206;2024-01-06T10:42:13;2.65;;;2.45;;
33810;SDS011;20119;48.334;16.206;2024-01-06T10:44:41;1.55;;;1.02;;
33810;SDS011;20119;48.334;16.206;2024-01-06T10:47:10;4.07;;;2.15;;
33810;SDS011;20119;48.334;16.206;2024-01-06T10:49:39;0.20;;;0.20;;
33810;SDS011;20119;48.334;16.206;2024-01-06T10:54:42;4.47;;;2.15;;
33810;SDS011;20119;48.334;16.206;2024-01-06T10:57:15;3.13;;;2.83;;
33810;SDS011;20119;48.334;16.206;2024-01-06T11:04:56;1.20;;;1.17;;
33810;SDS011;20119;48.334;16.206;2024-01-06T11:07:24;2.30;;;1.83;;
33810;SDS011;20119;48.334;16.206;2024-01-06T11:12:28;2.97;;;1.80;;
33810;SDS011;20119;48.334;16.206;2024-01-06T11:14:55;1.15;;;1.00;;
33810;SDS011;20119;48.334;16.206;2024-01-06T11:33:23;1.60;;;1.50;;
33810;SDS011;20119;48.334;16.206;2024-01-06T11:35:52;1.17;;;1.15;;
33810;SDS011;20119;48.334;16.206;2024-01-06T11:38:20;1.05;;;1.05;;
33810;SDS011;20119;48.334;16.206;2024-01-06T11:40:47;1.83;;;1.40;;
33810;SDS011;20119;48.334;16.206;2024-01-06T11:43:15;1.00;;;0.75;;
33810;SDS011;20119;48.334;16.206;2024-01-06T11:45:45;6.20;;;2.78;;
33810;SDS011;20119;48.334;16.206;2024-01-06T11:48:13;3.28;;;1.00;;
33810;SDS011;20119;48.334;16.206;2024-01-06T11:55:53;1.13;;;1.08;;
33810;SDS011;20119;48.334;16.206;2024-01-06T11:58:20;1.52;;;1.42;;
33810;SDS011;20119;48.334;16.206;2024-01-06T12:00:54;1.65;;;0.95;;
33810;SDS011;20119;48.334;16.206;2024-01-06T12:03:22;1.50;;;1.40;;
33810;SDS011;20119;48.334;16.206;2024-01-06T12:08:27;0.38;;;0.38;;
33810;SDS011;20119;48.334;16.206;2024-01-06T12:11:03;1.73;;;1.63;;
33810;SDS011;20119;48.334;16.206;2024-01-06T12:13:30;0.68;;;0.68;;
33810;SDS011;20119;48.334;16.206;2024-01-06T12:15:57;0.17;;;0.17;;
33810;SDS011;20119;48.334;16.206;2024-01-06T12:18:25;0.68;;;0.65;;
33810;SDS011;20119;48.334;16.206;2024-01-06T12:20:52;0.20;;;0.20;;
33810;SDS011;20119;48.334;16.206;2024-01-06T12:23:23;0.77;;;0.77;;
33810;SDS011;20119;48.334;16.206;2024-01-06T12:33:40;0.20;;;0.20;;
33810;SDS011;20119;48.334;16.206;2024-01-06T12:36:07;2.45;;;2.25;;
33810;SDS011;20119;48.334;16.206;2024-01-06T12:41:12;2.15;;;1.17;;
33810;SDS011;20119;48.334;16.206;2024-01-06T12:46:14;0.43;;;0.43;;
33810;SDS011;20119;48.334;16.206;2024-01-06T12:48:43;0.22;;;0.22;;
33810;SDS011;20119;48.334;16.206;2024-01-06T12:56:18;0.28;;;0.28;;
33810;SDS011;20119;48.334;16.206;2024-01-06T12:58:46;1.65;;;1.30;;
33810;SDS011;20119;48.334;16.206;2024-01-06T13:01:13;0.40;;;0.40;;
33810;SDS011;20119;48.334;16.206;2024-01-06T13:03:40;0.22;;;0.22;;
33810;SDS011;20119;48.334;16.206;2024-01-06T13:06:09;1.58;;;1.48;;
33810;SDS011;20119;48.334;16.206;2024-01-06T13:08:37;2.67;;;1.92;;
33810;SDS011;20119;48.334;16.206;2024-01-06T13:24:05;1.50;;;1.40;;
33810;SDS011;20119;48.334;16.206;2024-01-06T13:26:32;1.10;;;1.02;;
33810;SDS011;20119;48.334;16.206;2024-01-06T13:29:01;2.92;;;1.63;;
33810;SDS011;20119;48.334;16.206;2024-01-06T13:31:28;0.85;;;0.85;;
33810;SDS011;20119;48.334;16.206;2024-01-06T13:33:56;0.65;;;0.55;;
33810;SDS011;20119;48.334;16.206;2024-01-06T13:36:23;1.42;;;1.33;;
33810;SDS011;20119;48.334;16.206;2024-01-06T13:38:50;0.98;;;0.90;;
33810;SDS011;20119;48.334;16.206;2024-01-06T13:41:19;0.40;;;0.40;;
33810;SDS011;20119;48.334;16.206;2024-01-06T13:43:47;0.32;;;0.32;;
33810;SDS011;20119;48.334;16.206;2024-01-06T13:51:27;0.57;;;0.57;;
33810;SDS011;20119;48.334;16.206;2024-01-06T13:53:54;1.20;;;1.20;;
33810;SDS011;20119;48.334;16.206;2024-01-06T14:06:47;1.05;;;0.95;;
33810;SDS011;20119;48.334;16.206;2024-01-06T14:09:21;0.43;;;0.43;;
33810;SDS011;20119;48.334;16.206;2024-01-06T14:11:48;0.65;;;0.65;;
33810;SDS011;20119;48.334;16.206;2024-01-06T14:14:15;1.02;;;1.02;;
33810;SDS011;20119;48.334;16.206;2024-01-06T14:16:43;3.00;;;1.90;;
33810;SDS011;20119;48.334;16.206;2024-01-06T14:19:11;4.10;;;2.45;;
33810;SDS011;20119;48.334;16.206;2024-01-06T14:21:39;0.40;;;0.40;;
33810;SDS011;20119;48.334;16.206;2024-01-06T14:24:08;1.70;;;1.60;;
33810;SDS011;20119;48.334;16.206;2024-01-06T14:31:47;0.57;;;0.57;;
33810;SDS011;20119;48.334;16.206;2024-01-06T14:36:50;0.65;;;0.65;;
33810;SDS011;20119;48.334;16.206;2024-01-06T14:39:19;1.95;;;1.65;;
33810;SDS011;20119;48.334;16.206;2024-01-06T14:44:23;0.40;;;0.40;;
33810;SDS011;20119;48.334;16.206;2024-01-06T14:49:27;3.25;;;2.20;;
33810;SDS011;20119;48.334;16.206;2024-01-06T14:54:31;0.50;;;0.50;;
33810;SDS011;20119;48.334;16.206;2024-01-06T14:56:58;0.47;;;0.47;;
33810;SDS011;20119;48.334;16.206;2024-01-06T14:59:26;1.27;;;1.20;;
33810;SDS011;20119;48.334;16.206;2024-01-06T15:01:53;0.68;;;0.68;;
33810;SDS011;20119;48.334;16.206;2024-01-06T15:04:20;0.45;;;0.45;;
33810;SDS011;20119;48.334;16.206;2024-01-06T15:06:48;0.20;;;0.20;;
33810;SDS011;20119;48.334;16.206;2024-01-06T15:09:15;0.63;;;0.63;;
33810;SDS011;20119;48.334;16.206;2024-01-06T15:11:44;2.30;;;1.35;;
33810;SDS011;20119;48.334;16.206;2024-01-06T15:14:11;0.40;;;0.40;;
33810;SDS011;20119;48.334;16.206;2024-01-06T15:19:15;0.47;;;0.47;;
33810;SDS011;20119;48.334;16.206;2024-01-06T15:21:42;1.75;;;1.02;;
33810;SDS011;20119;48.334;16.206;2024-01-06T15:26:50;2.08;;;1.60;;
33810;SDS011;20119;48.334;16.206;2024-01-06T15:29:17;0.43;;;0.43;;
33810;SDS011;20119;48.334;16.206;2024-01-06T15:31:44;0.20;;;0.20;;
33810;SDS011;20119;48.334;16.206;2024-01-06T15:34:12;2.50;;;2.08;;
33810;SDS011;20119;48.334;16.206;2024-01-06T15:47:05;0.20;;;0.20;;
33810;SDS011;20119;48.334;16.206;2024-01-06T15:49:46;0.63;;;0.63;;
33810;SDS011;20119;48.334;16.206;2024-01-06T15:54:49;1.77;;;1.15;;
33810;SDS011;20119;48.334;16.206;2024-01-06T15:57:17;1.50;;;1.40;;
33810;SDS011;20119;48.334;16.206;2024-01-06T15:59:44;0.45;;;0.45;;
33810;SDS011;20119;48.334;16.206;2024-01-06T16:02:13;0.88;;;0.85;;
33810;SDS011;20119;48.334;16.206;2024-01-06T16:09:47;3.83;;;1.95;;
33810;SDS011;20119;48.334;16.206;2024-01-06T16:12:15;0.25;;;0.25;;
33810;SDS011;20119;48.334;16.206;2024-01-06T16:14:42;0.50;;;0.50;;
33810;SDS011;20119;48.334;16.206;2024-01-06T16:17:09;0.55;;;0.55;;
33810;SDS011;20119;48.334;16.206;2024-01-06T16:19:38;1.48;;;1.40;;
33810;SDS011;20119;48.334;16.206;2024-01-06T16:22:06;0.33;;;0.33;;
33810;SDS011;20119;48.334;16.206;2024-01-06T16:32:22;0.22;;;0.22;;
33810;SDS011;20119;48.334;16.206;2024-01-06T16:35:01;1.58;;;1.48;;
33810;SDS011;20119;48.334;16.206;2024-01-06T16:37:28;0.65;;;0.55;;
33810;SDS011;20119;48.334;16.206;2024-01-06T16:39:55;1.15;;;1.05;;
33810;SDS011;20119;48.334;16.206;2024-01-06T16:42:23;0.40;;;0.40;;
33810;SDS011;20119;48.334;16.206;2024-01-06T16:44:50;0.68;;;0.68;;
33810;SDS011;20119;48.334;16.206;2024-01-06T16:47:18;1.65;;;1.55;;
33810;SDS011;20119;48.334;16.206;2024-01-06T16:52:31;0.30;;;0.30;;
33810;SDS011;20119;48.334;16.206;2024-01-06T16:57:35;0.30;;;0.30;;
33810;SDS011;20119;48.334;16.206;2024-01-06T17:00:02;3.00;;;0.80;;
33810;SDS011;20119;48.334;16.206;2024-01-06T17:04:58;1.63;;;1.52;;
33810;SDS011;20119;48.334;16.206;2024-01-06T17:12:38;0.38;;;0.38;;
33810;SDS011;20119;48.334;16.206;2024-01-06T17:15:07;1.13;;;1.02;;
33810;SDS011;20119;48.334;16.206;2024-01-06T17:17:34;0.20;;;0.20;;
33810;SDS011;20119;48.334;16.206;2024-01-06T17:25:15;0.20;;;0.20;;
33810;SDS011;20119;48.334;16.206;2024-01-06T17:32:55;0.30;;;0.30;;
33810;SDS011;20119;48.334;16.206;2024-01-06T17:35:23;1.70;;;1.60;;
33810;SDS011;20119;48.334;16.206;2024-01-06T17:37:51;1.00;;;0.85;;
33810;SDS011;20119;48.334;16.206;2024-01-06T17:40:18;0.45;;;0.45;;
33810;SDS011;20119;48.334;16.206;2024-01-06T17:42:45;0.52;;;0.52;;
33810;SDS011;20119;48.334;16.206;2024-01-06T17:45:13;0.75;;;0.75;;
33810;SDS011;20119;48.334;16.206;2024-01-06T17:47:40;0.50;;;0.50;;
33810;SDS011;20119;48.334;16.206;2024-01-06T17:50:11;0.88;;;0.85;;
33810;SDS011;20119;48.334;16.206;2024-01-06T17:55:14;0.45;;;0.45;;
33810;SDS011;20119;48.334;16.206;2024-01-06T17:57:42;0.40;;;0.40;;
33810;SDS011;20119;48.334;16.206;2024-01-06T18:00:09;0.20;;;0.20;;
33810;SDS011;20119;48.334;16.206;2024-01-06T18:02:38;0.22;;;0.22;;
33810;SDS011;20119;48.334;16.206;2024-01-06T18:05:07;0.17;;;0.17;;
33810;SDS011;20119;48.334;16.206;2024-01-06T18:07:36;0.20;;;0.20;;
33810;SDS011;20119;48.334;16.206;2024-01-06T18:10:04;1.00;;;0.95;;
33810;SDS011;20119;48.334;16.206;2024-01-06T18:12:31;0.40;;;0.40;;
33810;SDS011;20119;48.334;16.206;2024-01-06T18:14:58;0.77;;;0.77;;
33810;SDS011;20119;48.334;16.206;2024-01-06T18:17:26;1.05;;;1.05;;
33810;SDS011;20119;48.334;16.206;2024-01-06T18:19:53;0.20;;;0.20;;
33810;SDS011;20119;48.334;16.206;2024-01-06T18:22:21;0.20;;;0.20;;
33810;SDS011;20119;48.334;16.206;2024-01-06T18:24:50;2.78;;;1.65;;
33810;SDS011;20119;48.334;16.206;2024-01-06T18:27:17;4.07;;;1.90;;
33810;SDS011;20119;48.334;16.206;2024-01-06T18:29:44;0.30;;;0.30;;
33810;SDS011;20119;48.334;16.206;2024-01-06T18:32:13;8.13;;;2.28;;
33810;SDS011;20119;48.334;16.206;2024-01-06T18:34:40;0.88;;;0.88;;
33810;SDS011;20119;48.334;16.206;2024-01-06T18:39:38;0.80;;;0.80;;
33810;SDS011;20119;48.334;16.206;2024-01-06T18:42:07;0.43;;;0.43;;
33810;SDS011;20119;48.334;16.206;2024-01-06T18:44:36;0.85;;;0.85;;
33810;SDS011;20119;48.334;16.206;2024-01-06T18:47:04;0.43;;;0.43;;
33810;SDS011;20119;48.334;16.206;2024-01-06T18:49:34;0.63;;;0.63;;
33810;SDS011;20119;48.334;16.206;2024-01-06T18:52:02;0.40;;;0.40;;
33810;SDS011;20119;48.334;16.206;2024-01-06T18:57:06;0.38;;;0.38;;
33810;SDS011;20119;48.334;16.206;2024-01-06T18:59:36;1.73;;;0.95;;
33810;SDS011;20119;48.334;16.206;2024-01-06T19:07:15;0.40;;;0.40;;
33810;SDS011;20119;48.334;16.206;2024-01-06T19:09:43;0.38;;;0.38;;
33810;SDS011;20119;48.334;16.206;2024-01-06T19:12:11;0.57;;;0.57;;
33810;SDS011;20119;48.334;16.206;2024-01-06T19:14:39;1.27;;;0.80;;
33810;SDS011;20119;48.334;16.206;2024-01-06T19:17:07;0.30;;;0.30;;
33810;SDS011;20119;48.334;16.206;2024-01-06T19:19:35;1.48;;;1.38;;
33810;SDS011;20119;48.334;16.206;2024-01-06T19:22:04;0.43;;;0.43;;
33810;SDS011;20119;48.334;16.206;2024-01-06T19:24:31;0.80;;;0.80;;
33810;SDS011;20119;48.334;16.206;2024-01-06T19:26:59;0.20;;;0.20;;
33810;SDS011;20119;48.334;16.206;2024-01-06T19:29:28;0.65;;;0.65;;
33810;SDS011;20119;48.334;16.206;2024-01-06T19:31:57;2.58;;;2.38;;
33810;SDS011;20119;48.334;16.206;2024-01-06T19:34:24;1.75;;;1.65;;
33810;SDS011;20119;48.334;16.206;2024-01-06T19:36:51;1.77;;;1.67;;
33810;SDS011;20119;48.334;16.206;2024-01-06T19:41:54;0.55;;;0.55;;
33810;SDS011;20119;48.334;16.206;2024-01-06T19:44:22;2.05;;;1.45;;
33810;SDS011;20119;48.334;16.206;2024-01-06T19:46:51;1.95;;;1.52;;
33810;SDS011;20119;48.334;16.206;2024-01-06T19:49:21;0.75;;;0.75;;
33810;SDS011;20119;48.334;16.206;2024-01-06T19:51:49;4.07;;;3.70;;
33810;SDS011;20119;48.334;16.206;2024-01-06T19:54:16;2.35;;;2.22;;
33810;SDS011;20119;48.334;16.206;2024-01-06T19:56:43;2.45;;;2.28;;
33810;SDS011;20119;48.334;16.206;2024-01-06T19:59:11;1.83;;;1.73;;
33810;SDS011;20119;48.334;16.206;2024-01-06T20:01:38;0.73;;;0.47;;
33810;SDS011;20119;48.334;16.206;2024-01-06T20:04:07;1.77;;;1.67;;
33810;SDS011;20119;48.334;16.206;2024-01-06T20:06:34;1.88;;;1.77;;
33810;SDS011;20119;48.334;16.206;2024-01-06T20:09:02;1.17;;;1.17;;
33810;SDS011;20119;48.334;16.206;2024-01-06T20:27:07;0.63;;;0.63;;
33810;SDS011;20119;48.334;16.206;2024-01-06T20:29:35;5.00;;;2.85;;
33810;SDS011;20119;48.334;16.206;2024-01-06T20:32:02;1.65;;;0.75;;
33810;SDS011;20119;48.334;16.206;2024-01-06T20:34:30;2.15;;;1.95;;
33810;SDS011;20119;48.334;16.206;2024-01-06T20:39:33;1.30;;;1.20;;
33810;SDS011;20119;48.334;16.206;2024-01-06T20:42:00;0.93;;;0.93;;
33810;SDS011;20119;48.334;16.206;2024-01-06T20:44:29;0.68;;;0.68;;
33810;SDS011;20119;48.334;16.206;2024-01-06T20:46:56;0.43;;;0.43;;
33810;SDS011;20119;48.334;16.206;2024-01-06T20:49:23;0.82;;;0.82;;
33810;SDS011;20119;48.334;16.206;2024-01-06T20:51:51;1.42;;;1.33;;